KMLU/MLU METAR and TAF weather

Enter ICAO airport designator
Station Type Date Time Source
KMLU METAR 2018/12/10 12:53 UTC NOAA

KMLU 101253Z 00000KT 10SM CLR M01/M02 A3033 RMK AO2 SLP272 I1000 T10111022


Station Type Date Time Source
KMLU Decoded METAR 2018/12/10 12:53 UTC NOAA

MONROE REGIONAL AIRPORT, LA, United States (KMLU) 32-31N 092-02W 29M
Dec 10, 2018 - 07:53 AM EST / 2018.12.10 1253 UTC
Wind: Calm:0
Visibility: 10 mile(s):0
Sky conditions: clear
Temperature: 30.0 F (-1.1 C)
Dew Point: 28.0 F (-2.2 C)
Relative Humidity: 92%
Pressure (altimeter): 30.33 in. Hg (1027 hPa)
ob: KMLU 101253Z 00000KT 10SM CLR M01/M02 A3033 RMK AO2 SLP272 I1000 T10111022
cycle: 13

Station Type Date Time Source
KMLU TAF 2018/12/10 12:39 UTC NOAA

TAF KMLU 101136Z 1012/1112 32005KT P6SM SKC
TEMPO 1012/1014 5SM BR
FM110000 00000KT P6SM SKC


Example: see airport list